sensor_id;sensor_type;location;lat;lon;timestamp;pressure;altitude;pressure_sealevel;temperature;humidity
6528;BME280;3297;42.664;23.256;2022-07-29T00:01:06;50447.78;;;-139.84;74.87
6528;BME280;3297;42.664;23.256;2022-07-29T00:03:32;50486.66;;;-139.84;75.06
6528;BME280;3297;42.664;23.256;2022-07-29T00:05:58;50475.00;;;-139.84;75.47
6528;BME280;3297;42.664;23.256;2022-07-29T00:08:23;50490.53;;;-139.84;75.48
6528;BME280;3297;42.664;23.256;2022-07-29T00:10:49;50467.22;;;-139.84;75.84
6528;BME280;3297;42.664;23.256;2022-07-29T00:13:15;50478.88;;;-139.84;75.91
6528;BME280;3297;42.664;23.256;2022-07-29T00:15:41;50445.84;;;-139.84;76.35
6528;BME280;3297;42.664;23.256;2022-07-29T00:18:07;50436.13;;;-139.84;75.57
6528;BME280;3297;42.664;23.256;2022-07-29T00:20:32;50463.34;;;-139.84;74.96
6528;BME280;3297;42.664;23.256;2022-07-29T00:22:58;50476.94;;;-139.84;74.78
6528;BME280;3297;42.664;23.256;2022-07-29T00:25:24;50482.78;;;-139.84;74.40
6528;BME280;3297;42.664;23.256;2022-07-29T00:27:49;50467.22;;;-139.84;73.95
6528;BME280;3297;42.664;23.256;2022-07-29T00:30:15;50490.53;;;-139.84;74.28
6528;BME280;3297;42.664;23.256;2022-07-29T00:32:40;50471.09;;;-139.84;74.13
6528;BME280;3297;42.664;23.256;2022-07-29T00:35:06;50447.78;;;-139.84;74.13
6528;BME280;3297;42.664;23.256;2022-07-29T00:37:51;50471.09;;;-139.84;74.08
6528;BME280;3297;42.664;23.256;2022-07-29T00:40:17;50459.44;;;-139.84;73.99
6528;BME280;3297;42.664;23.256;2022-07-29T00:42:47;50482.78;;;-139.84;73.88
6528;BME280;3297;42.664;23.256;2022-07-29T00:45:14;50475.00;;;-139.84;74.10
6528;BME280;3297;42.664;23.256;2022-07-29T00:47:39;50490.53;;;-139.84;74.15
6528;BME280;3297;42.664;23.256;2022-07-29T00:50:07;50494.44;;;-139.84;73.78
6528;BME280;3297;42.664;23.256;2022-07-29T00:52:35;50482.78;;;-139.84;73.92
6528;BME280;3297;42.664;23.256;2022-07-29T00:55:03;50482.78;;;-139.84;74.10
6528;BME280;3297;42.664;23.256;2022-07-29T00:57:29;50502.19;;;-139.84;74.04
6528;BME280;3297;42.664;23.256;2022-07-29T00:59:55;50502.19;;;-139.84;73.66
6528;BME280;3297;42.664;23.256;2022-07-29T01:02:21;50506.09;;;-139.84;73.88
6528;BME280;3297;42.664;23.256;2022-07-29T01:04:47;50484.72;;;-139.84;74.22
6528;BME280;3297;42.664;23.256;2022-07-29T01:07:13;50486.66;;;-139.84;74.08
6528;BME280;3297;42.664;23.256;2022-07-29T01:09:38;50494.44;;;-139.84;73.88
6528;BME280;3297;42.664;23.256;2022-07-29T01:12:05;50465.28;;;-139.84;73.69
6528;BME280;3297;42.664;23.256;2022-07-29T01:14:31;50508.03;;;-139.84;73.66
6528;BME280;3297;42.664;23.256;2022-07-29T01:17:22;50482.78;;;-139.84;73.53
6528;BME280;3297;42.664;23.256;2022-07-29T01:22:53;50488.59;;;-139.84;73.82
6528;BME280;3297;42.664;23.256;2022-07-29T01:28:21;50484.72;;;-139.84;74.69
6528;BME280;3297;42.664;23.256;2022-07-29T01:30:51;50480.81;;;-139.84;75.20
6528;BME280;3297;42.664;23.256;2022-07-29T01:33:19;50490.53;;;-139.84;75.52
6528;BME280;3297;42.664;23.256;2022-07-29T01:36:12;50486.66;;;-139.84;75.25
6528;BME280;3297;42.664;23.256;2022-07-29T01:38:41;50457.50;;;-139.84;74.95
6528;BME280;3297;42.664;23.256;2022-07-29T01:41:15;50471.09;;;-139.84;75.30
6528;BME280;3297;42.664;23.256;2022-07-29T01:43:50;50443.91;;;-139.84;75.05
6528;BME280;3297;42.664;23.256;2022-07-29T01:46:35;50476.94;;;-139.84;75.22
6528;BME280;3297;42.664;23.256;2022-07-29T01:49:14;50475.00;;;-139.84;75.09
6528;BME280;3297;42.664;23.256;2022-07-29T01:51:45;50488.59;;;-139.84;75.06
6528;BME280;3297;42.664;23.256;2022-07-29T01:56:59;50478.88;;;-139.84;75.96
6528;BME280;3297;42.664;23.256;2022-07-29T01:59:25;50498.31;;;-139.84;76.49
6528;BME280;3297;42.664;23.256;2022-07-29T02:01:53;50517.75;;;-139.84;76.12
6528;BME280;3297;42.664;23.256;2022-07-29T02:04:20;50467.22;;;-139.84;76.37
6528;BME280;3297;42.664;23.256;2022-07-29T02:06:49;50471.09;;;-139.84;76.66
6528;BME280;3297;42.664;23.256;2022-07-29T02:09:17;50441.94;;;-139.84;77.36
6528;BME280;3297;42.664;23.256;2022-07-29T02:11:48;50467.22;;;-139.84;77.36
6528;BME280;3297;42.664;23.256;2022-07-29T02:14:16;50482.78;;;-139.84;76.88
6528;BME280;3297;42.664;23.256;2022-07-29T02:16:43;50467.22;;;-139.84;77.33
6528;BME280;3297;42.664;23.256;2022-07-29T02:19:09;50502.19;;;-139.84;77.28
6528;BME280;3297;42.664;23.256;2022-07-29T02:21:36;50509.97;;;-139.84;77.18
6528;BME280;3297;42.664;23.256;2022-07-29T02:24:04;50502.19;;;-139.84;77.65
6528;BME280;3297;42.664;23.256;2022-07-29T02:26:30;50484.72;;;-139.84;77.28
6528;BME280;3297;42.664;23.256;2022-07-29T02:28:58;50511.91;;;-139.84;76.62
6528;BME280;3297;42.664;23.256;2022-07-29T02:31:28;50461.38;;;-139.84;76.81
6528;BME280;3297;42.664;23.256;2022-07-29T02:33:55;50490.53;;;-139.84;77.36
6528;BME280;3297;42.664;23.256;2022-07-29T02:36:23;50492.47;;;-139.84;77.12
6528;BME280;3297;42.664;23.256;2022-07-29T02:38:51;50509.97;;;-139.84;77.36
6528;BME280;3297;42.664;23.256;2022-07-29T02:41:26;50480.81;;;-139.84;77.12
6528;BME280;3297;42.664;23.256;2022-07-29T02:43:58;50465.28;;;-139.84;77.51
6528;BME280;3297;42.664;23.256;2022-07-29T02:46:31;50494.44;;;-139.84;77.20
6528;BME280;3297;42.664;23.256;2022-07-29T02:49:10;50480.81;;;-139.84;77.31
6528;BME280;3297;42.664;23.256;2022-07-29T02:52:03;50492.47;;;-139.84;77.43
6528;BME280;3297;42.664;23.256;2022-07-29T02:54:45;50465.28;;;-139.84;77.32
6528;BME280;3297;42.664;23.256;2022-07-29T02:59:54;50467.22;;;-139.84;77.34
6528;BME280;3297;42.664;23.256;2022-07-29T03:02:23;50496.38;;;-139.84;77.54
6528;BME280;3297;42.664;23.256;2022-07-29T03:04:51;50457.50;;;-139.84;77.73
6528;BME280;3297;42.664;23.256;2022-07-29T03:07:19;50453.59;;;-139.84;77.75
6528;BME280;3297;42.664;23.256;2022-07-29T03:09:46;50502.19;;;-139.84;77.76
6528;BME280;3297;42.664;23.256;2022-07-29T03:12:14;50519.69;;;-139.84;78.15
6528;BME280;3297;42.664;23.256;2022-07-29T03:14:40;50504.16;;;-139.84;77.99
6528;BME280;3297;42.664;23.256;2022-07-29T03:17:06;50511.91;;;-139.84;78.38
6528;BME280;3297;42.664;23.256;2022-07-29T03:19:32;50504.16;;;-139.84;78.10
6528;BME280;3297;42.664;23.256;2022-07-29T03:21:59;50498.31;;;-139.84;78.26
6528;BME280;3297;42.664;23.256;2022-07-29T03:24:33;50494.44;;;-139.84;78.14
6528;BME280;3297;42.664;23.256;2022-07-29T03:27:00;50471.09;;;-139.84;78.45
6528;BME280;3297;42.664;23.256;2022-07-29T03:29:27;50490.53;;;-139.84;79.12
6528;BME280;3297;42.664;23.256;2022-07-29T03:31:53;50517.75;;;-139.84;79.08
6528;BME280;3297;42.664;23.256;2022-07-29T03:34:18;50496.38;;;-139.84;79.47
6528;BME280;3297;42.664;23.256;2022-07-29T03:36:44;50531.34;;;-139.84;79.62
6528;BME280;3297;42.664;23.256;2022-07-29T03:39:11;50494.44;;;-139.84;79.73
6528;BME280;3297;42.664;23.256;2022-07-29T03:41:38;50482.78;;;-139.84;79.81
6528;BME280;3297;42.664;23.256;2022-07-29T03:44:05;50509.97;;;-139.84;79.59
6528;BME280;3297;42.664;23.256;2022-07-29T03:46:34;50537.19;;;-139.84;79.66
6528;BME280;3297;42.664;23.256;2022-07-29T03:49:03;50463.34;;;-139.84;79.61
6528;BME280;3297;42.664;23.256;2022-07-29T03:51:30;50509.97;;;-139.84;79.47
6528;BME280;3297;42.664;23.256;2022-07-29T03:53:56;50490.53;;;-139.84;79.31
6528;BME280;3297;42.664;23.256;2022-07-29T03:56:23;50480.81;;;-139.84;79.63
6528;BME280;3297;42.664;23.256;2022-07-29T03:58:50;50511.91;;;-139.84;79.64
6528;BME280;3297;42.664;23.256;2022-07-29T04:01:17;50500.25;;;-139.84;79.61
6528;BME280;3297;42.664;23.256;2022-07-29T04:03:44;50486.66;;;-139.84;79.52
6528;BME280;3297;42.664;23.256;2022-07-29T04:06:14;50486.66;;;-139.84;79.84
6528;BME280;3297;42.664;23.256;2022-07-29T04:08:40;50475.00;;;-139.84;80.16
6528;BME280;3297;42.664;23.256;2022-07-29T04:11:05;50478.88;;;-139.84;79.92
6528;BME280;3297;42.664;23.256;2022-07-29T04:13:32;50496.38;;;-139.84;80.14
6528;BME280;3297;42.664;23.256;2022-07-29T04:15:58;50513.88;;;-139.84;79.64
6528;BME280;3297;42.664;23.256;2022-07-29T04:18:24;50506.09;;;-139.84;79.39
6528;BME280;3297;42.664;23.256;2022-07-29T04:20:50;50498.31;;;-139.84;79.55
6528;BME280;3297;42.664;23.256;2022-07-29T04:23:16;50541.06;;;-139.84;79.63
6528;BME280;3297;42.664;23.256;2022-07-29T04:25:42;50482.78;;;-139.84;79.78
6528;BME280;3297;42.664;23.256;2022-07-29T04:28:09;50537.19;;;-139.84;79.65
6528;BME280;3297;42.664;23.256;2022-07-29T04:30:36;50506.09;;;-139.84;79.17
6528;BME280;3297;42.664;23.256;2022-07-29T04:33:05;50494.44;;;-139.84;79.50
6528;BME280;3297;42.664;23.256;2022-07-29T04:35:34;50525.53;;;-139.84;79.24
6528;BME280;3297;42.664;23.256;2022-07-29T04:38:00;50506.09;;;-139.84;79.56
6528;BME280;3297;42.664;23.256;2022-07-29T04:40:27;50498.31;;;-139.84;79.54
6528;BME280;3297;42.664;23.256;2022-07-29T04:42:52;50513.88;;;-139.84;79.50
6528;BME280;3297;42.664;23.256;2022-07-29T04:45:18;50513.88;;;-139.84;79.49
6528;BME280;3297;42.664;23.256;2022-07-29T04:47:44;50504.16;;;-139.84;79.29
6528;BME280;3297;42.664;23.256;2022-07-29T04:50:09;50513.88;;;-139.84;79.17
6528;BME280;3297;42.664;23.256;2022-07-29T04:52:35;50502.19;;;-139.84;79.17
6528;BME280;3297;42.664;23.256;2022-07-29T04:55:01;50543.03;;;-139.84;78.24
6528;BME280;3297;42.664;23.256;2022-07-29T04:57:27;50533.31;;;-139.84;77.94
6528;BME280;3297;42.664;23.256;2022-07-29T04:59:53;50508.03;;;-139.84;77.49
6528;BME280;3297;42.664;23.256;2022-07-29T05:02:18;50525.53;;;-139.84;77.00
6528;BME280;3297;42.664;23.256;2022-07-29T05:04:44;50519.69;;;-139.84;77.18
6528;BME280;3297;42.664;23.256;2022-07-29T05:07:10;50537.19;;;-139.84;77.24
6528;BME280;3297;42.664;23.256;2022-07-29T05:09:35;50509.97;;;-139.84;77.10
6528;BME280;3297;42.664;23.256;2022-07-29T05:12:01;50543.03;;;-139.84;76.60
6528;BME280;3297;42.664;23.256;2022-07-29T05:14:27;50603.28;;;-139.84;76.29
6528;BME280;3297;42.664;23.256;2022-07-29T05:16:52;50544.97;;;-139.84;75.90
6528;BME280;3297;42.664;23.256;2022-07-29T05:19:21;50525.53;;;-139.84;75.84
6528;BME280;3297;42.664;23.256;2022-07-29T05:21:47;50548.84;;;-139.84;75.52
6528;BME280;3297;42.664;23.256;2022-07-29T05:24:13;50513.88;;;-139.84;74.19
6528;BME280;3297;42.664;23.256;2022-07-29T05:26:39;50511.91;;;-139.84;73.50
6528;BME280;3297;42.664;23.256;2022-07-29T05:29:05;50556.63;;;-139.84;73.19
6528;BME280;3297;42.664;23.256;2022-07-29T05:31:30;50541.06;;;-139.84;72.72
6528;BME280;3297;42.664;23.256;2022-07-29T05:33:56;50527.47;;;-139.84;72.78
6528;BME280;3297;42.664;23.256;2022-07-29T05:36:22;50568.28;;;-139.84;72.60
6528;BME280;3297;42.664;23.256;2022-07-29T05:38:47;50525.53;;;-139.84;71.34
6528;BME280;3297;42.664;23.256;2022-07-29T05:41:13;50544.97;;;-139.84;71.02
6528;BME280;3297;42.664;23.256;2022-07-29T05:43:38;50541.06;;;-139.84;70.74
6528;BME280;3297;42.664;23.256;2022-07-29T05:46:04;50541.06;;;-139.84;69.76
6528;BME280;3297;42.664;23.256;2022-07-29T05:48:30;50560.50;;;-139.84;70.12
6528;BME280;3297;42.664;23.256;2022-07-29T05:50:55;50513.88;;;-139.84;69.26
6528;BME280;3297;42.664;23.256;2022-07-29T05:53:21;50560.50;;;-139.84;69.00
6528;BME280;3297;42.664;23.256;2022-07-29T05:55:48;50541.06;;;-139.84;65.73
6528;BME280;3297;42.664;23.256;2022-07-29T05:58:14;50579.94;;;-139.84;65.52
6528;BME280;3297;42.664;23.256;2022-07-29T06:00:39;50583.84;;;-139.84;64.63
6528;BME280;3297;42.664;23.256;2022-07-29T06:03:05;50595.50;;;-139.84;63.55
6528;BME280;3297;42.664;23.256;2022-07-29T06:05:30;50544.97;;;-139.84;63.20
6528;BME280;3297;42.664;23.256;2022-07-29T06:07:56;50556.63;;;-139.84;61.04
6528;BME280;3297;42.664;23.256;2022-07-29T06:10:22;50587.72;;;-139.84;60.19
6528;BME280;3297;42.664;23.256;2022-07-29T06:12:47;50634.38;;;-139.84;58.81
6528;BME280;3297;42.664;23.256;2022-07-29T06:15:13;50601.34;;;-139.84;58.47
6528;BME280;3297;42.664;23.256;2022-07-29T06:17:38;50618.81;;;-139.84;56.54
6528;BME280;3297;42.664;23.256;2022-07-29T06:20:04;50607.16;;;-139.84;56.14
6528;BME280;3297;42.664;23.256;2022-07-29T06:22:30;50591.63;;;-139.84;54.72
6528;BME280;3297;42.664;23.256;2022-07-29T06:24:56;50607.16;;;-139.84;54.26
6528;BME280;3297;42.664;23.256;2022-07-29T06:27:21;50593.56;;;-139.84;53.04
6528;BME280;3297;42.664;23.256;2022-07-29T06:29:47;50667.41;;;-139.84;51.88
6528;BME280;3297;42.664;23.256;2022-07-29T06:32:13;50564.41;;;-139.84;50.97
6528;BME280;3297;42.664;23.256;2022-07-29T06:34:38;50640.22;;;-139.84;49.32
6528;BME280;3297;42.664;23.256;2022-07-29T06:37:07;50603.28;;;-139.84;49.13
6528;BME280;3297;42.664;23.256;2022-07-29T06:39:35;50634.38;;;-139.84;48.17
6528;BME280;3297;42.664;23.256;2022-07-29T06:42:02;50585.78;;;-139.84;48.79
6528;BME280;3297;42.664;23.256;2022-07-29T06:44:28;50595.50;;;-139.84;48.35
6528;BME280;3297;42.664;23.256;2022-07-29T06:46:53;50622.72;;;-139.84;48.12
6528;BME280;3297;42.664;23.256;2022-07-29T06:49:20;50613.00;;;-139.84;47.69
6528;BME280;3297;42.664;23.256;2022-07-29T06:51:45;50626.59;;;-139.84;46.57
6528;BME280;3297;42.664;23.256;2022-07-29T06:54:11;50618.81;;;-139.84;45.20
6528;BME280;3297;42.664;23.256;2022-07-29T06:56:37;50603.28;;;-139.84;44.30
6528;BME280;3297;42.664;23.256;2022-07-29T06:59:03;50620.78;;;-139.84;43.77
6528;BME280;3297;42.664;23.256;2022-07-29T07:01:29;50597.44;;;-139.84;43.26
6528;BME280;3297;42.664;23.256;2022-07-29T07:03:54;50607.16;;;-139.84;43.02
6528;BME280;3297;42.664;23.256;2022-07-29T07:06:20;50611.06;;;-139.84;42.77
6528;BME280;3297;42.664;23.256;2022-07-29T07:08:46;50622.72;;;-139.84;42.13
6528;BME280;3297;42.664;23.256;2022-07-29T07:11:11;50603.28;;;-139.84;41.20
6528;BME280;3297;42.664;23.256;2022-07-29T07:13:37;50620.78;;;-139.84;41.81
6528;BME280;3297;42.664;23.256;2022-07-29T07:16:03;50622.72;;;-139.84;41.99
6528;BME280;3297;42.664;23.256;2022-07-29T07:18:29;50579.94;;;-139.84;41.75
6528;BME280;3297;42.664;23.256;2022-07-29T07:20:56;50579.94;;;-139.84;40.70
6528;BME280;3297;42.664;23.256;2022-07-29T07:23:21;50618.81;;;-139.84;41.08
6528;BME280;3297;42.664;23.256;2022-07-29T07:25:47;50628.53;;;-139.84;39.56
6528;BME280;3297;42.664;23.256;2022-07-29T07:28:13;50634.38;;;-139.84;39.88
6528;BME280;3297;42.664;23.256;2022-07-29T07:30:39;50626.59;;;-139.84;40.13
6528;BME280;3297;42.664;23.256;2022-07-29T07:33:05;50607.16;;;-139.84;39.86
6528;BME280;3297;42.664;23.256;2022-07-29T07:35:30;50632.44;;;-139.84;39.86
6528;BME280;3297;42.664;23.256;2022-07-29T07:37:56;50626.59;;;-139.84;39.63
6528;BME280;3297;42.664;23.256;2022-07-29T07:40:22;50585.78;;;-139.84;39.68
6528;BME280;3297;42.664;23.256;2022-07-29T07:42:48;50622.72;;;-139.84;39.46
6528;BME280;3297;42.664;23.256;2022-07-29T07:45:14;50591.63;;;-139.84;39.01
6528;BME280;3297;42.664;23.256;2022-07-29T07:47:40;50649.94;;;-139.84;38.31
6528;BME280;3297;42.664;23.256;2022-07-29T07:50:07;50607.16;;;-139.84;38.33
6528;BME280;3297;42.664;23.256;2022-07-29T07:52:33;50572.19;;;-139.84;38.04
6528;BME280;3297;42.664;23.256;2022-07-29T07:54:58;50611.06;;;-139.84;37.91
6528;BME280;3297;42.664;23.256;2022-07-29T07:57:24;50593.56;;;-139.84;38.43
6528;BME280;3297;42.664;23.256;2022-07-29T07:59:50;50583.84;;;-139.84;37.53
6528;BME280;3297;42.664;23.256;2022-07-29T08:02:15;50605.22;;;-139.84;37.97
6528;BME280;3297;42.664;23.256;2022-07-29T08:04:41;50636.31;;;-139.84;37.26
6528;BME280;3297;42.664;23.256;2022-07-29T08:07:07;50620.78;;;-139.84;37.03
6528;BME280;3297;42.664;23.256;2022-07-29T08:09:34;50595.50;;;-139.84;36.87
6528;BME280;3297;42.664;23.256;2022-07-29T08:12:00;50607.16;;;-139.84;36.66
6528;BME280;3297;42.664;23.256;2022-07-29T08:14:29;50589.66;;;-139.84;37.49
6528;BME280;3297;42.664;23.256;2022-07-29T08:16:55;50583.84;;;-139.84;35.74
6528;BME280;3297;42.664;23.256;2022-07-29T08:19:21;50599.38;;;-139.84;35.29
6528;BME280;3297;42.664;23.256;2022-07-29T08:21:46;50630.50;;;-139.84;34.78
6528;BME280;3297;42.664;23.256;2022-07-29T08:24:12;50595.50;;;-139.84;35.31
6528;BME280;3297;42.664;23.256;2022-07-29T08:26:56;50599.38;;;-139.84;34.67
6528;BME280;3297;42.664;23.256;2022-07-29T08:29:21;50611.06;;;-139.84;34.66
6528;BME280;3297;42.664;23.256;2022-07-29T08:31:47;50583.84;;;-139.84;34.29
6528;BME280;3297;42.664;23.256;2022-07-29T08:34:13;50558.56;;;-139.84;34.04
6528;BME280;3297;42.664;23.256;2022-07-29T08:36:38;50578.00;;;-139.84;33.96
6528;BME280;3297;42.664;23.256;2022-07-29T08:39:04;50607.16;;;-139.84;33.82
6528;BME280;3297;42.664;23.256;2022-07-29T08:41:30;50587.72;;;-139.84;33.41
6528;BME280;3297;42.664;23.256;2022-07-29T08:43:56;50587.72;;;-139.84;33.87
6528;BME280;3297;42.664;23.256;2022-07-29T08:46:22;50560.50;;;-139.84;33.54
6528;BME280;3297;42.664;23.256;2022-07-29T08:48:49;50570.22;;;-139.84;32.91
6528;BME280;3297;42.664;23.256;2022-07-29T08:51:19;50607.16;;;-139.84;33.65
6528;BME280;3297;42.664;23.256;2022-07-29T08:53:46;50572.19;;;-139.84;32.94
6528;BME280;3297;42.664;23.256;2022-07-29T08:56:16;50591.63;;;-139.84;33.21
6528;BME280;3297;42.664;23.256;2022-07-29T08:58:42;50581.91;;;-139.84;33.10
6528;BME280;3297;42.664;23.256;2022-07-29T09:01:08;50578.00;;;-139.84;33.59
6528;BME280;3297;42.664;23.256;2022-07-29T09:03:36;50599.38;;;-139.84;32.52
6528;BME280;3297;42.664;23.256;2022-07-29T09:06:03;50642.16;;;-139.84;32.13
6528;BME280;3297;42.664;23.256;2022-07-29T09:08:31;50583.84;;;-139.84;32.05
6528;BME280;3297;42.664;23.256;2022-07-29T09:10:57;50581.91;;;-139.84;32.00
6528;BME280;3297;42.664;23.256;2022-07-29T09:13:23;50564.41;;;-139.84;31.92
6528;BME280;3297;42.664;23.256;2022-07-29T09:15:50;50568.28;;;-139.84;31.50
6528;BME280;3297;42.664;23.256;2022-07-29T09:18:35;50562.47;;;-139.84;31.52
6528;BME280;3297;42.664;23.256;2022-07-29T09:21:02;50572.19;;;-139.84;31.35
6528;BME280;3297;42.664;23.256;2022-07-29T09:24:07;50576.06;;;-139.84;31.16
6528;BME280;3297;42.664;23.256;2022-07-29T09:26:35;50599.38;;;-139.84;31.89
6528;BME280;3297;42.664;23.256;2022-07-29T09:29:11;50570.22;;;-139.84;31.24
6528;BME280;3297;42.664;23.256;2022-07-29T09:31:40;50548.84;;;-139.84;30.90
6528;BME280;3297;42.664;23.256;2022-07-29T09:34:06;50572.19;;;-139.84;30.83
6528;BME280;3297;42.664;23.256;2022-07-29T09:36:39;50527.47;;;-139.84;30.15
6528;BME280;3297;42.664;23.256;2022-07-29T09:39:05;50556.63;;;-139.84;30.94
6528;BME280;3297;42.664;23.256;2022-07-29T09:41:50;50564.41;;;-139.84;30.18
6528;BME280;3297;42.664;23.256;2022-07-29T09:44:19;50574.13;;;-139.84;30.95
6528;BME280;3297;42.664;23.256;2022-07-29T09:46:56;50554.69;;;-139.84;30.82
6528;BME280;3297;42.664;23.256;2022-07-29T09:49:23;50548.84;;;-139.84;29.84
6528;BME280;3297;42.664;23.256;2022-07-29T09:51:59;50558.56;;;-139.84;30.53
6528;BME280;3297;42.664;23.256;2022-07-29T09:54:27;50558.56;;;-139.84;30.61
6528;BME280;3297;42.664;23.256;2022-07-29T09:56:54;50576.06;;;-139.84;30.25
6528;BME280;3297;42.664;23.256;2022-07-29T09:59:20;50560.50;;;-139.84;30.23
6528;BME280;3297;42.664;23.256;2022-07-29T10:01:48;50513.88;;;-139.84;29.76
6528;BME280;3297;42.664;23.256;2022-07-29T10:04:15;50556.63;;;-139.84;30.07
6528;BME280;3297;42.664;23.256;2022-07-29T10:07:00;50537.19;;;-139.84;30.66
6528;BME280;3297;42.664;23.256;2022-07-29T10:09:26;50548.84;;;-139.84;30.59
6528;BME280;3297;42.664;23.256;2022-07-29T10:12:10;50552.75;;;-139.84;30.52
6528;BME280;3297;42.664;23.256;2022-07-29T10:14:36;50574.13;;;-139.84;30.97
6528;BME280;3297;42.664;23.256;2022-07-29T10:17:05;50556.63;;;-139.84;31.34
6528;BME280;3297;42.664;23.256;2022-07-29T10:19:32;50529.41;;;-139.84;30.25
6528;BME280;3297;42.664;23.256;2022-07-29T10:21:59;50525.53;;;-139.84;30.43
6528;BME280;3297;42.664;23.256;2022-07-29T10:24:26;50556.63;;;-139.84;30.25
6528;BME280;3297;42.664;23.256;2022-07-29T10:26:54;50523.59;;;-139.84;30.49
6528;BME280;3297;42.664;23.256;2022-07-29T10:29:20;50554.69;;;-139.84;30.81
6528;BME280;3297;42.664;23.256;2022-07-29T10:37:12;50564.41;;;-139.84;30.65
6528;BME280;3297;42.664;23.256;2022-07-29T10:40:09;50548.84;;;-139.84;30.22
6528;BME280;3297;42.664;23.256;2022-07-29T10:42:49;50531.34;;;-139.84;30.08
6528;BME280;3297;42.664;23.256;2022-07-29T10:45:17;50546.91;;;-139.84;30.64
6528;BME280;3297;42.664;23.256;2022-07-29T10:47:43;50558.56;;;-139.84;30.06
6528;BME280;3297;42.664;23.256;2022-07-29T10:50:10;50537.19;;;-139.84;29.53
6528;BME280;3297;42.664;23.256;2022-07-29T10:55:36;50511.91;;;-139.84;30.23
6528;BME280;3297;42.664;23.256;2022-07-29T10:58:22;50548.84;;;-139.84;30.41
6528;BME280;3297;42.664;23.256;2022-07-29T11:00:54;50500.25;;;-139.84;30.55
6528;BME280;3297;42.664;23.256;2022-07-29T11:03:45;50546.91;;;-139.84;30.75
6528;BME280;3297;42.664;23.256;2022-07-29T11:06:12;50517.75;;;-139.84;30.05
6528;BME280;3297;42.664;23.256;2022-07-29T11:08:38;50513.88;;;-139.84;30.28
6528;BME280;3297;42.664;23.256;2022-07-29T11:16:14;50541.06;;;-139.84;30.69
6528;BME280;3297;42.664;23.256;2022-07-29T11:21:44;50548.84;;;-139.84;30.54
6528;BME280;3297;42.664;23.256;2022-07-29T11:24:23;50513.88;;;-139.84;31.44
6528;BME280;3297;42.664;23.256;2022-07-29T11:27:18;50517.75;;;-139.84;30.71
6528;BME280;3297;42.664;23.256;2022-07-29T11:32:19;50482.78;;;-139.84;31.19
6528;BME280;3297;42.664;23.256;2022-07-29T11:34:47;50523.59;;;-139.84;31.08
6528;BME280;3297;42.664;23.256;2022-07-29T11:44:55;50517.75;;;-139.84;30.99
6528;BME280;3297;42.664;23.256;2022-07-29T11:47:25;50548.84;;;-139.84;30.82
6528;BME280;3297;42.664;23.256;2022-07-29T11:49:52;50521.63;;;-139.84;30.53
6528;BME280;3297;42.664;23.256;2022-07-29T11:52:18;50570.22;;;-139.84;30.58
6528;BME280;3297;42.664;23.256;2022-07-29T11:54:44;50490.53;;;-139.84;30.63
6528;BME280;3297;42.664;23.256;2022-07-29T11:57:13;50513.88;;;-139.84;30.40
6528;BME280;3297;42.664;23.256;2022-07-29T11:59:41;50513.88;;;-139.84;30.52
6528;BME280;3297;42.664;23.256;2022-07-29T12:02:10;50509.97;;;-139.84;30.67
6528;BME280;3297;42.664;23.256;2022-07-29T12:05:05;50463.34;;;-139.84;31.04
6528;BME280;3297;42.664;23.256;2022-07-29T12:07:33;50517.75;;;-139.84;30.42
6528;BME280;3297;42.664;23.256;2022-07-29T12:09:59;50506.09;;;-139.84;30.66
6528;BME280;3297;42.664;23.256;2022-07-29T12:12:25;50517.75;;;-139.84;30.23
6528;BME280;3297;42.664;23.256;2022-07-29T12:14:51;50521.63;;;-139.84;29.99
6528;BME280;3297;42.664;23.256;2022-07-29T12:17:33;50509.97;;;-139.84;30.46
6528;BME280;3297;42.664;23.256;2022-07-29T12:20:01;50525.53;;;-139.84;30.51
6528;BME280;3297;42.664;23.256;2022-07-29T12:22:39;50498.31;;;-139.84;30.40
6528;BME280;3297;42.664;23.256;2022-07-29T12:25:08;50502.19;;;-139.84;30.00
6528;BME280;3297;42.664;23.256;2022-07-29T12:27:36;50494.44;;;-139.84;30.70
6528;BME280;3297;42.664;23.256;2022-07-29T12:30:05;50484.72;;;-139.84;30.99
6528;BME280;3297;42.664;23.256;2022-07-29T12:32:36;50500.25;;;-139.84;30.85
6528;BME280;3297;42.664;23.256;2022-07-29T12:35:10;50513.88;;;-139.84;31.00
6528;BME280;3297;42.664;23.256;2022-07-29T12:37:38;50484.72;;;-139.84;31.13
6528;BME280;3297;42.664;23.256;2022-07-29T12:40:05;50494.44;;;-139.84;31.34
6528;BME280;3297;42.664;23.256;2022-07-29T12:42:32;50496.38;;;-139.84;31.35
6528;BME280;3297;42.664;23.256;2022-07-29T12:44:58;50471.09;;;-139.84;31.40
6528;BME280;3297;42.664;23.256;2022-07-29T12:47:24;50492.47;;;-139.84;31.16
6528;BME280;3297;42.664;23.256;2022-07-29T12:49:50;50467.22;;;-139.84;31.31
6528;BME280;3297;42.664;23.256;2022-07-29T12:52:34;50463.34;;;-139.84;31.08
6528;BME280;3297;42.664;23.256;2022-07-29T12:55:00;50500.25;;;-139.84;31.10
6528;BME280;3297;42.664;23.256;2022-07-29T12:57:27;50490.53;;;-139.84;31.13
6528;BME280;3297;42.664;23.256;2022-07-29T13:00:04;50480.81;;;-139.84;31.64
6528;BME280;3297;42.664;23.256;2022-07-29T13:02:30;50502.19;;;-139.84;31.32
6528;BME280;3297;42.664;23.256;2022-07-29T13:04:57;50486.66;;;-139.84;31.00
6528;BME280;3297;42.664;23.256;2022-07-29T13:07:25;50492.47;;;-139.84;31.12
6528;BME280;3297;42.664;23.256;2022-07-29T13:09:52;50475.00;;;-139.84;31.37
6528;BME280;3297;42.664;23.256;2022-07-29T13:12:18;50482.78;;;-139.84;31.48
6528;BME280;3297;42.664;23.256;2022-07-29T13:14:49;50490.53;;;-139.84;30.96
6528;BME280;3297;42.664;23.256;2022-07-29T13:17:22;50478.88;;;-139.84;31.36
6528;BME280;3297;42.664;23.256;2022-07-29T13:19:53;50478.88;;;-139.84;31.41
6528;BME280;3297;42.664;23.256;2022-07-29T13:22:29;50449.72;;;-139.84;31.52
6528;BME280;3297;42.664;23.256;2022-07-29T13:24:57;50484.72;;;-139.84;31.42
6528;BME280;3297;42.664;23.256;2022-07-29T13:27:25;50478.88;;;-139.84;31.46
6528;BME280;3297;42.664;23.256;2022-07-29T13:29:52;50492.47;;;-139.84;31.41
6528;BME280;3297;42.664;23.256;2022-07-29T13:32:19;50476.94;;;-139.84;31.76
6528;BME280;3297;42.664;23.256;2022-07-29T13:34:45;50490.53;;;-139.84;31.13